sensor_id;sensor_type;location;lat;lon;timestamp;pressure;altitude;pressure_sealevel;temperature;humidity
62632;BME280;48703;51.248;-0.546;2022-11-23T00:02:54;98765;;;5.44;90.93
62632;BME280;48703;51.248;-0.546;2022-11-23T00:05:55;98768;;;5.43;91.06
62632;BME280;48703;51.248;-0.546;2022-11-23T00:08:57;98768;;;5.41;91.00
62632;BME280;48703;51.248;-0.546;2022-11-23T00:11:59;98764;;;5.41;91.11
62632;BME280;48703;51.248;-0.546;2022-11-23T00:15:01;98768;;;5.42;91.30
62632;BME280;48703;51.248;-0.546;2022-11-23T00:18:03;98768;;;5.43;91.85
62632;BME280;48703;51.248;-0.546;2022-11-23T00:21:06;98766;;;5.47;91.81
62632;BME280;48703;51.248;-0.546;2022-11-23T00:24:09;98761;;;5.48;91.87
62632;BME280;48703;51.248;-0.546;2022-11-23T00:27:09;98758;;;5.51;92.10
62632;BME280;48703;51.248;-0.546;2022-11-23T00:30:11;98757;;;5.55;92.43
62632;BME280;48703;51.248;-0.546;2022-11-23T00:33:12;98755;;;5.61;92.50
62632;BME280;48703;51.248;-0.546;2022-11-23T00:36:15;98755;;;5.65;92.50
62632;BME280;48703;51.248;-0.546;2022-11-23T00:39:16;98749;;;5.67;92.52
62632;BME280;48703;51.248;-0.546;2022-11-23T00:42:18;98749;;;5.70;92.50
62632;BME280;48703;51.248;-0.546;2022-11-23T00:45:20;98749;;;5.74;92.59
62632;BME280;48703;51.248;-0.546;2022-11-23T00:48:22;98745;;;5.76;92.54
62632;BME280;48703;51.248;-0.546;2022-11-23T00:51:25;98743;;;5.78;92.46
62632;BME280;48703;51.248;-0.546;2022-11-23T00:54:26;98732;;;5.81;92.40
62632;BME280;48703;51.248;-0.546;2022-11-23T00:57:27;98730;;;5.83;92.36
62632;BME280;48703;51.248;-0.546;2022-11-23T01:00:30;98727;;;5.85;92.32
62632;BME280;48703;51.248;-0.546;2022-11-23T01:03:31;98725;;;5.87;92.36
62632;BME280;48703;51.248;-0.546;2022-11-23T01:06:34;98725;;;5.90;92.36
62632;BME280;48703;51.248;-0.546;2022-11-23T01:09:35;98723;;;5.91;92.45
62632;BME280;48703;51.248;-0.546;2022-11-23T01:12:37;98718;;;5.92;92.32
62632;BME280;48703;51.248;-0.546;2022-11-23T01:15:47;98712;;;5.94;92.48
62632;BME280;48703;51.248;-0.546;2022-11-23T01:18:41;98709;;;5.96;92.40
62632;BME280;48703;51.248;-0.546;2022-11-23T01:21:43;98710;;;5.98;92.43
62632;BME280;48703;51.248;-0.546;2022-11-23T01:24:44;98709;;;5.99;92.50
62632;BME280;48703;51.248;-0.546;2022-11-23T01:27:46;98708;;;6.01;92.64
62632;BME280;48703;51.248;-0.546;2022-11-23T01:30:48;98705;;;6.04;92.76
62632;BME280;48703;51.248;-0.546;2022-11-23T01:33:51;98693;;;6.07;92.76
62632;BME280;48703;51.248;-0.546;2022-11-23T01:36:52;98688;;;6.10;92.86
62632;BME280;48703;51.248;-0.546;2022-11-23T01:39:54;98684;;;6.11;92.66
62632;BME280;48703;51.248;-0.546;2022-11-23T01:42:56;98682;;;6.12;92.72
62632;BME280;48703;51.248;-0.546;2022-11-23T01:45:58;98677;;;6.14;92.64
62632;BME280;48703;51.248;-0.546;2022-11-23T01:49:00;98674;;;6.16;92.41
62632;BME280;48703;51.248;-0.546;2022-11-23T01:52:03;98668;;;6.16;92.24
62632;BME280;48703;51.248;-0.546;2022-11-23T01:55:04;98664;;;6.16;92.02
62632;BME280;48703;51.248;-0.546;2022-11-23T01:58:05;98657;;;6.15;91.93
62632;BME280;48703;51.248;-0.546;2022-11-23T02:01:07;98653;;;6.13;91.84
62632;BME280;48703;51.248;-0.546;2022-11-23T02:04:11;98643;;;6.11;91.74
62632;BME280;48703;51.248;-0.546;2022-11-23T02:07:11;98639;;;6.08;91.63
62632;BME280;48703;51.248;-0.546;2022-11-23T02:10:13;98633;;;6.06;91.62
62632;BME280;48703;51.248;-0.546;2022-11-23T02:13:15;98627;;;6.03;91.53
62632;BME280;48703;51.248;-0.546;2022-11-23T02:16:17;98622;;;6.02;91.55
62632;BME280;48703;51.248;-0.546;2022-11-23T02:19:20;98616;;;5.99;91.56
62632;BME280;48703;51.248;-0.546;2022-11-23T02:22:22;98608;;;5.98;91.61
62632;BME280;48703;51.248;-0.546;2022-11-23T02:25:25;98602;;;5.97;91.61
62632;BME280;48703;51.248;-0.546;2022-11-23T02:28:26;98602;;;5.96;91.64
62632;BME280;48703;51.248;-0.546;2022-11-23T02:31:26;98606;;;5.95;91.76
62632;BME280;48703;51.248;-0.546;2022-11-23T02:34:28;98599;;;5.94;91.75
62632;BME280;48703;51.248;-0.546;2022-11-23T02:37:30;98596;;;5.93;91.86
62632;BME280;48703;51.248;-0.546;2022-11-23T02:40:33;98593;;;5.92;91.87
62632;BME280;48703;51.248;-0.546;2022-11-23T02:43:33;98590;;;5.91;91.95
62632;BME280;48703;51.248;-0.546;2022-11-23T02:46:35;98586;;;5.88;91.88
62632;BME280;48703;51.248;-0.546;2022-11-23T02:49:38;98582;;;5.88;91.97
62632;BME280;48703;51.248;-0.546;2022-11-23T02:52:39;98573;;;5.88;92.06
62632;BME280;48703;51.248;-0.546;2022-11-23T02:55:41;98568;;;5.87;92.15
62632;BME280;48703;51.248;-0.546;2022-11-23T02:58:43;98567;;;5.87;92.19
62632;BME280;48703;51.248;-0.546;2022-11-23T03:01:45;98558;;;5.86;92.13
62632;BME280;48703;51.248;-0.546;2022-11-23T03:04:47;98554;;;5.85;92.20
62632;BME280;48703;51.248;-0.546;2022-11-23T03:07:49;98546;;;5.85;92.23
62632;BME280;48703;51.248;-0.546;2022-11-23T03:10:50;98535;;;5.84;92.21
62632;BME280;48703;51.248;-0.546;2022-11-23T03:13:52;98526;;;5.84;92.18
62632;BME280;48703;51.248;-0.546;2022-11-23T03:16:54;98519;;;5.82;92.11
62632;BME280;48703;51.248;-0.546;2022-11-23T03:19:56;98507;;;5.81;92.04
62632;BME280;48703;51.248;-0.546;2022-11-23T03:22:58;98504;;;5.79;91.99
62632;BME280;48703;51.248;-0.546;2022-11-23T03:26:00;98508;;;5.77;92.04
62632;BME280;48703;51.248;-0.546;2022-11-23T03:29:02;98507;;;5.75;91.95
62632;BME280;48703;51.248;-0.546;2022-11-23T03:32:04;98504;;;5.74;91.97
62632;BME280;48703;51.248;-0.546;2022-11-23T03:35:06;98501;;;5.71;91.99
62632;BME280;48703;51.248;-0.546;2022-11-23T03:38:07;98494;;;5.70;91.95
62632;BME280;48703;51.248;-0.546;2022-11-23T03:41:09;98492;;;5.68;91.98
62632;BME280;48703;51.248;-0.546;2022-11-23T03:44:11;98493;;;5.65;91.68
62632;BME280;48703;51.248;-0.546;2022-11-23T03:47:13;98496;;;5.56;91.50
62632;BME280;48703;51.248;-0.546;2022-11-23T03:50:15;98495;;;5.52;91.56
62632;BME280;48703;51.248;-0.546;2022-11-23T03:53:17;98488;;;5.49;91.87
62632;BME280;48703;51.248;-0.546;2022-11-23T03:56:19;98480;;;5.47;92.07
62632;BME280;48703;51.248;-0.546;2022-11-23T03:59:20;98475;;;5.46;92.13
62632;BME280;48703;51.248;-0.546;2022-11-23T04:02:22;98475;;;5.47;92.29
62632;BME280;48703;51.248;-0.546;2022-11-23T04:05:24;98479;;;5.49;92.55
62632;BME280;48703;51.248;-0.546;2022-11-23T04:08:26;98473;;;5.52;92.83
62632;BME280;48703;51.248;-0.546;2022-11-23T04:11:28;98467;;;5.55;92.96
62632;BME280;48703;51.248;-0.546;2022-11-23T04:14:30;98460;;;5.57;93.05
62632;BME280;48703;51.248;-0.546;2022-11-23T04:17:32;98455;;;5.61;92.95
62632;BME280;48703;51.248;-0.546;2022-11-23T04:20:34;98457;;;5.64;93.12
62632;BME280;48703;51.248;-0.546;2022-11-23T04:23:35;98457;;;5.66;93.12
62632;BME280;48703;51.248;-0.546;2022-11-23T04:26:37;98455;;;5.72;93.28
62632;BME280;48703;51.248;-0.546;2022-11-23T04:29:39;98446;;;5.78;93.41
62632;BME280;48703;51.248;-0.546;2022-11-23T04:32:42;98439;;;5.82;93.36
62632;BME280;48703;51.248;-0.546;2022-11-23T04:35:43;98431;;;5.87;93.33
62632;BME280;48703;51.248;-0.546;2022-11-23T04:38:45;98401;;;5.93;93.36
62632;BME280;48703;51.248;-0.546;2022-11-23T04:41:47;98395;;;5.99;93.42
62632;BME280;48703;51.248;-0.546;2022-11-23T04:44:49;98389;;;6.04;93.30
62632;BME280;48703;51.248;-0.546;2022-11-23T04:47:50;98395;;;6.08;93.19
62632;BME280;48703;51.248;-0.546;2022-11-23T04:50:52;98401;;;6.11;93.14
62632;BME280;48703;51.248;-0.546;2022-11-23T04:53:54;98406;;;6.14;92.98
62632;BME280;48703;51.248;-0.546;2022-11-23T04:56:56;98409;;;6.15;92.86
62632;BME280;48703;51.248;-0.546;2022-11-23T04:59:58;98408;;;6.16;92.71
62632;BME280;48703;51.248;-0.546;2022-11-23T05:03:00;98403;;;6.17;92.73
62632;BME280;48703;51.248;-0.546;2022-11-23T05:06:02;98400;;;6.18;92.59
62632;BME280;48703;51.248;-0.546;2022-11-23T05:09:04;98391;;;6.18;92.46
62632;BME280;48703;51.248;-0.546;2022-11-23T05:12:06;98381;;;6.18;92.38
62632;BME280;48703;51.248;-0.546;2022-11-23T05:15:09;98371;;;6.18;92.32
62632;BME280;48703;51.248;-0.546;2022-11-23T05:18:10;98364;;;6.17;92.39
62632;BME280;48703;51.248;-0.546;2022-11-23T05:21:11;98363;;;6.17;92.55
62632;BME280;48703;51.248;-0.546;2022-11-23T05:24:13;98367;;;6.18;92.72
62632;BME280;48703;51.248;-0.546;2022-11-23T05:27:15;98369;;;6.21;92.87
62632;BME280;48703;51.248;-0.546;2022-11-23T05:30:17;98364;;;6.24;92.95
62632;BME280;48703;51.248;-0.546;2022-11-23T05:33:19;98355;;;6.26;92.82
62632;BME280;48703;51.248;-0.546;2022-11-23T05:36:21;98344;;;6.28;92.76
62632;BME280;48703;51.248;-0.546;2022-11-23T05:39:23;98341;;;6.32;92.87
62632;BME280;48703;51.248;-0.546;2022-11-23T05:42:24;98328;;;6.35;93.00
62632;BME280;48703;51.248;-0.546;2022-11-23T05:45:26;98318;;;6.38;93.09
62632;BME280;48703;51.248;-0.546;2022-11-23T05:48:28;98309;;;6.43;93.32
62632;BME280;48703;51.248;-0.546;2022-11-23T05:51:30;98310;;;6.49;93.52
62632;BME280;48703;51.248;-0.546;2022-11-23T05:54:32;98304;;;6.57;93.79
62632;BME280;48703;51.248;-0.546;2022-11-23T05:57:34;98303;;;6.67;93.90
62632;BME280;48703;51.248;-0.546;2022-11-23T06:00:36;98295;;;6.77;94.24
62632;BME280;48703;51.248;-0.546;2022-11-23T06:03:38;98294;;;6.86;94.50
62632;BME280;48703;51.248;-0.546;2022-11-23T06:06:39;98277;;;6.93;94.52
62632;BME280;48703;51.248;-0.546;2022-11-23T06:09:41;98261;;;6.99;94.63
62632;BME280;48703;51.248;-0.546;2022-11-23T06:12:43;98249;;;7.05;94.59
62632;BME280;48703;51.248;-0.546;2022-11-23T06:15:45;98239;;;7.12;94.76
62632;BME280;48703;51.248;-0.546;2022-11-23T06:18:47;98232;;;7.18;94.73
62632;BME280;48703;51.248;-0.546;2022-11-23T06:21:49;98226;;;7.24;94.72
62632;BME280;48703;51.248;-0.546;2022-11-23T06:24:51;98219;;;7.30;94.80
62632;BME280;48703;51.248;-0.546;2022-11-23T06:27:53;98216;;;7.36;94.97
62632;BME280;48703;51.248;-0.546;2022-11-23T06:30:55;98208;;;7.41;95.20
62632;BME280;48703;51.248;-0.546;2022-11-23T06:33:56;98200;;;7.47;95.43
62632;BME280;48703;51.248;-0.546;2022-11-23T06:36:58;98195;;;7.51;95.51
62632;BME280;48703;51.248;-0.546;2022-11-23T06:40:00;98191;;;7.56;95.91
62632;BME280;48703;51.248;-0.546;2022-11-23T06:43:02;98190;;;7.61;96.05
62632;BME280;48703;51.248;-0.546;2022-11-23T06:46:04;98190;;;7.65;96.27
62632;BME280;48703;51.248;-0.546;2022-11-23T06:49:06;98187;;;7.70;96.43
62632;BME280;48703;51.248;-0.546;2022-11-23T06:52:08;98178;;;7.77;96.69
62632;BME280;48703;51.248;-0.546;2022-11-23T06:55:10;98178;;;7.82;96.81
62632;BME280;48703;51.248;-0.546;2022-11-23T06:58:11;98176;;;7.87;97.01
62632;BME280;48703;51.248;-0.546;2022-11-23T07:01:13;98175;;;7.91;97.02
62632;BME280;48703;51.248;-0.546;2022-11-23T07:04:15;98159;;;7.96;97.10
62632;BME280;48703;51.248;-0.546;2022-11-23T07:07:17;98157;;;8.01;97.24
62632;BME280;48703;51.248;-0.546;2022-11-23T07:10:19;98153;;;8.05;97.28
62632;BME280;48703;51.248;-0.546;2022-11-23T07:13:21;98145;;;8.11;97.55
62632;BME280;48703;51.248;-0.546;2022-11-23T07:16:23;98145;;;8.15;97.49
62632;BME280;48703;51.248;-0.546;2022-11-23T07:19:25;98148;;;8.19;97.58
62632;BME280;48703;51.248;-0.546;2022-11-23T07:22:27;98148;;;8.23;97.66
62632;BME280;48703;51.248;-0.546;2022-11-23T07:25:28;98143;;;8.26;97.61
62632;BME280;48703;51.248;-0.546;2022-11-23T07:28:30;98137;;;8.29;97.54
62632;BME280;48703;51.248;-0.546;2022-11-23T07:31:32;98122;;;8.32;97.50
62632;BME280;48703;51.248;-0.546;2022-11-23T07:34:34;98110;;;8.35;97.50
62632;BME280;48703;51.248;-0.546;2022-11-23T07:37:36;98100;;;8.39;97.60
62632;BME280;48703;51.248;-0.546;2022-11-23T07:40:38;98098;;;8.44;97.62
62632;BME280;48703;51.248;-0.546;2022-11-23T07:43:40;98097;;;8.47;97.70
62632;BME280;48703;51.248;-0.546;2022-11-23T07:46:42;98090;;;8.51;97.71
62632;BME280;48703;51.248;-0.546;2022-11-23T07:49:43;98078;;;8.53;97.62
62632;BME280;48703;51.248;-0.546;2022-11-23T07:52:45;98072;;;8.57;97.79
62632;BME280;48703;51.248;-0.546;2022-11-23T07:55:47;98070;;;8.61;97.72
62632;BME280;48703;51.248;-0.546;2022-11-23T07:58:49;98069;;;8.65;97.72
62632;BME280;48703;51.248;-0.546;2022-11-23T08:01:51;98062;;;8.68;97.72
62632;BME280;48703;51.248;-0.546;2022-11-23T08:04:53;98056;;;8.72;97.75
62632;BME280;48703;51.248;-0.546;2022-11-23T08:07:56;98048;;;8.74;97.72
62632;BME280;48703;51.248;-0.546;2022-11-23T08:10:57;98043;;;8.78;97.74
62632;BME280;48703;51.248;-0.546;2022-11-23T08:13:59;98035;;;8.81;97.75
62632;BME280;48703;51.248;-0.546;2022-11-23T08:17:00;98030;;;8.86;97.95
62632;BME280;48703;51.248;-0.546;2022-11-23T08:20:02;98023;;;8.91;97.94
62632;BME280;48703;51.248;-0.546;2022-11-23T08:23:04;98017;;;8.94;97.89
62632;BME280;48703;51.248;-0.546;2022-11-23T08:26:06;98013;;;8.98;97.95
62632;BME280;48703;51.248;-0.546;2022-11-23T08:29:08;98020;;;9.03;97.99
62632;BME280;48703;51.248;-0.546;2022-11-23T08:32:10;98025;;;9.07;98.09
62632;BME280;48703;51.248;-0.546;2022-11-23T08:35:12;98038;;;9.10;98.05
62632;BME280;48703;51.248;-0.546;2022-11-23T08:38:14;98037;;;9.12;98.07
62632;BME280;48703;51.248;-0.546;2022-11-23T08:41:15;98039;;;9.15;98.11
62632;BME280;48703;51.248;-0.546;2022-11-23T08:44:17;98048;;;9.18;98.09
62632;BME280;48703;51.248;-0.546;2022-11-23T08:47:19;98069;;;9.25;98.21
62632;BME280;48703;51.248;-0.546;2022-11-23T08:50:21;98080;;;9.30;98.13
62632;BME280;48703;51.248;-0.546;2022-11-23T08:53:23;98082;;;9.35;98.14
62632;BME280;48703;51.248;-0.546;2022-11-23T08:56:25;98096;;;9.40;98.03
62632;BME280;48703;51.248;-0.546;2022-11-23T08:59:27;98101;;;9.44;97.85
62632;BME280;48703;51.248;-0.546;2022-11-23T09:02:29;98111;;;9.47;97.59
62632;BME280;48703;51.248;-0.546;2022-11-23T09:05:31;98118;;;9.48;97.38
62632;BME280;48703;51.248;-0.546;2022-11-23T09:08:32;98132;;;9.49;97.04
62632;BME280;48703;51.248;-0.546;2022-11-23T09:11:34;98144;;;9.51;96.67
62632;BME280;48703;51.248;-0.546;2022-11-23T09:14:36;98154;;;9.52;96.49
62632;BME280;48703;51.248;-0.546;2022-11-23T09:17:38;98161;;;9.53;95.66
62632;BME280;48703;51.248;-0.546;2022-11-23T09:20:40;98171;;;9.53;95.17
62632;BME280;48703;51.248;-0.546;2022-11-23T09:23:42;98181;;;9.52;94.93
62632;BME280;48703;51.248;-0.546;2022-11-23T09:26:44;98192;;;9.49;94.38
62632;BME280;48703;51.248;-0.546;2022-11-23T09:29:46;98204;;;9.47;93.61
62632;BME280;48703;51.248;-0.546;2022-11-23T09:32:47;98213;;;9.44;92.84
62632;BME280;48703;51.248;-0.546;2022-11-23T09:35:55;98224;;;9.42;93.19
62632;BME280;48703;51.248;-0.546;2022-11-23T09:38:51;98236;;;9.40;92.85
62632;BME280;48703;51.248;-0.546;2022-11-23T09:41:57;98247;;;9.39;92.45
62632;BME280;48703;51.248;-0.546;2022-11-23T09:45:00;98242;;;9.38;92.21
62632;BME280;48703;51.248;-0.546;2022-11-23T09:48:11;98248;;;9.37;92.37
62632;BME280;48703;51.248;-0.546;2022-11-23T09:50:59;98260;;;9.34;91.82
62632;BME280;48703;51.248;-0.546;2022-11-23T09:54:02;98259;;;9.32;91.67
62632;BME280;48703;51.248;-0.546;2022-11-23T09:57:03;98265;;;9.31;92.02
62632;BME280;48703;51.248;-0.546;2022-11-23T10:00:06;98268;;;9.28;91.03
62632;BME280;48703;51.248;-0.546;2022-11-23T10:03:09;98277;;;9.27;91.65
62632;BME280;48703;51.248;-0.546;2022-11-23T10:06:13;98289;;;9.26;91.24
62632;BME280;48703;51.248;-0.546;2022-11-23T10:09:16;98300;;;9.26;90.80
62632;BME280;48703;51.248;-0.546;2022-11-23T10:12:17;98308;;;9.25;90.68
62632;BME280;48703;51.248;-0.546;2022-11-23T10:15:14;98319;;;9.27;90.55
62632;BME280;48703;51.248;-0.546;2022-11-23T10:18:20;98331;;;9.32;90.29
62632;BME280;48703;51.248;-0.546;2022-11-23T10:21:20;98339;;;9.38;89.85
62632;BME280;48703;51.248;-0.546;2022-11-23T10:24:20;98346;;;9.46;88.36
62632;BME280;48703;51.248;-0.546;2022-11-23T10:27:22;98350;;;9.47;88.58
62632;BME280;48703;51.248;-0.546;2022-11-23T10:30:24;98357;;;9.44;88.66
62632;BME280;48703;51.248;-0.546;2022-11-23T10:33:27;98368;;;9.43;89.01
62632;BME280;48703;51.248;-0.546;2022-11-23T10:36:27;98375;;;9.45;88.79
62632;BME280;48703;51.248;-0.546;2022-11-23T10:39:29;98388;;;9.47;89.24
62632;BME280;48703;51.248;-0.546;2022-11-23T10:42:32;98396;;;9.46;88.02
62632;BME280;48703;51.248;-0.546;2022-11-23T10:45:33;98405;;;9.47;88.27
62632;BME280;48703;51.248;-0.546;2022-11-23T10:48:35;98415;;;9.47;86.66
62632;BME280;48703;51.248;-0.546;2022-11-23T10:51:36;98421;;;9.50;87.72
62632;BME280;48703;51.248;-0.546;2022-11-23T10:54:39;98426;;;9.48;85.37
62632;BME280;48703;51.248;-0.546;2022-11-23T10:57:41;98426;;;9.47;85.86
62632;BME280;48703;51.248;-0.546;2022-11-23T11:00:42;98433;;;9.45;86.78
62632;BME280;48703;51.248;-0.546;2022-11-23T11:03:44;98439;;;9.44;86.62
62632;BME280;48703;51.248;-0.546;2022-11-23T11:06:46;98443;;;9.44;86.61
62632;BME280;48703;51.248;-0.546;2022-11-23T11:09:49;98441;;;9.45;85.92
62632;BME280;48703;51.248;-0.546;2022-11-23T11:12:50;98446;;;9.45;85.67
62632;BME280;48703;51.248;-0.546;2022-11-23T11:15:53;98446;;;9.45;85.27
62632;BME280;48703;51.248;-0.546;2022-11-23T11:18:53;98452;;;9.44;85.63
62632;BME280;48703;51.248;-0.546;2022-11-23T11:21:55;98464;;;9.42;85.16
62632;BME280;48703;51.248;-0.546;2022-11-23T11:24:57;98465;;;9.41;84.78
62632;BME280;48703;51.248;-0.546;2022-11-23T11:27:59;98466;;;9.42;84.40
62632;BME280;48703;51.248;-0.546;2022-11-23T11:31:06;98474;;;9.44;84.50
62632;BME280;48703;51.248;-0.546;2022-11-23T11:34:05;98473;;;9.45;84.66
62632;BME280;48703;51.248;-0.546;2022-11-23T11:37:07;98479;;;9.46;84.88
62632;BME280;48703;51.248;-0.546;2022-11-23T11:40:08;98481;;;9.46;83.49
62632;BME280;48703;51.248;-0.546;2022-11-23T11:43:10;98490;;;9.48;84.99
62632;BME280;48703;51.248;-0.546;2022-11-23T11:46:12;98491;;;9.47;84.75
62632;BME280;48703;51.248;-0.546;2022-11-23T11:49:13;98493;;;9.48;84.50
62632;BME280;48703;51.248;-0.546;2022-11-23T11:52:16;98499;;;9.48;84.84
62632;BME280;48703;51.248;-0.546;2022-11-23T11:55:17;98505;;;9.50;84.61
62632;BME280;48703;51.248;-0.546;2022-11-23T11:58:18;98512;;;9.51;84.21
62632;BME280;48703;51.248;-0.546;2022-11-23T12:01:24;98519;;;9.52;83.84
62632;BME280;48703;51.248;-0.546;2022-11-23T12:04:23;98525;;;9.54;83.44
62632;BME280;48703;51.248;-0.546;2022-11-23T12:07:26;98527;;;9.56;83.01
62632;BME280;48703;51.248;-0.546;2022-11-23T12:10:27;98523;;;9.57;81.99
62632;BME280;48703;51.248;-0.546;2022-11-23T12:13:29;98523;;;9.61;82.52
62632;BME280;48703;51.248;-0.546;2022-11-23T12:16:30;98518;;;9.62;82.46
62632;BME280;48703;51.248;-0.546;2022-11-23T12:19:32;98520;;;9.63;82.71
62632;BME280;48703;51.248;-0.546;2022-11-23T12:22:35;98533;;;9.64;82.84
62632;BME280;48703;51.248;-0.546;2022-11-23T12:25:35;98535;;;9.66;82.35
62632;BME280;48703;51.248;-0.546;2022-11-23T12:28:43;98529;;;9.69;82.21
62632;BME280;48703;51.248;-0.546;2022-11-23T12:31:39;98536;;;9.70;82.36
62632;BME280;48703;51.248;-0.546;2022-11-23T12:34:46;98545;;;9.72;82.34
62632;BME280;48703;51.248;-0.546;2022-11-23T12:37:46;98546;;;9.73;82.22
62632;BME280;48703;51.248;-0.546;2022-11-23T12:40:47;98556;;;9.76;82.22
62632;BME280;48703;51.248;-0.546;2022-11-23T12:43:50;98556;;;9.78;81.38
62632;BME280;48703;51.248;-0.546;2022-11-23T12:46:49;98555;;;9.82;81.42
62632;BME280;48703;51.248;-0.546;2022-11-23T12:49:52;98560;;;9.85;80.36
62632;BME280;48703;51.248;-0.546;2022-11-23T12:52:55;98568;;;9.88;80.15
62632;BME280;48703;51.248;-0.546;2022-11-23T12:55:55;98572;;;9.89;80.00
62632;BME280;48703;51.248;-0.546;2022-11-23T12:58:55;98578;;;9.93;80.09
62632;BME280;48703;51.248;-0.546;2022-11-23T13:01:59;98575;;;9.97;79.87
62632;BME280;48703;51.248;-0.546;2022-11-23T13:05:02;98578;;;10.02;80.81
62632;BME280;48703;51.248;-0.546;2022-11-23T13:08:06;98583;;;10.03;80.81
62632;BME280;48703;51.248;-0.546;2022-11-23T13:11:07;98584;;;10.05;79.70
62632;BME280;48703;51.248;-0.546;2022-11-23T13:14:08;98588;;;10.06;78.38
62632;BME280;48703;51.248;-0.546;2022-11-23T13:17:11;98596;;;10.09;79.47
62632;BME280;48703;51.248;-0.546;2022-11-23T13:20:13;98601;;;10.10;79.26
62632;BME280;48703;51.248;-0.546;2022-11-23T13:23:11;98603;;;10.12;79.16
62632;BME280;48703;51.248;-0.546;2022-11-23T13:26:14;98608;;;10.13;78.44
62632;BME280;48703;51.248;-0.546;2022-11-23T13:29:45;98613;;;10.16;77.78
62632;BME280;48703;51.248;-0.546;2022-11-23T13:32:33;98617;;;10.20;78.10
62632;BME280;48703;51.248;-0.546;2022-11-23T13:35:51;98631;;;10.22;77.15
62632;BME280;48703;51.248;-0.546;2022-11-23T13:38:37;98640;;;10.24;76.24
62632;BME280;48703;51.248;-0.546;2022-11-23T13:44:25;98643;;;10.24;75.62
62632;BME280;48703;51.248;-0.546;2022-11-23T13:47:26;98641;;;10.20;75.23
62632;BME280;48703;51.248;-0.546;2022-11-23T13:50:28;98642;;;10.19;76.13
62632;BME280;48703;51.248;-0.546;2022-11-23T13:53:30;98639;;;10.19;76.13
62632;BME280;48703;51.248;-0.546;2022-11-23T13:56:33;98643;;;10.21;75.57
62632;BME280;48703;51.248;-0.546;2022-11-23T13:59:33;98649;;;10.22;76.18
62632;BME280;48703;51.248;-0.546;2022-11-23T14:02:35;98652;;;10.21;75.86
62632;BME280;48703;51.248;-0.546;2022-11-23T14:07:39;98661;;;10.19;77.15
62632;BME280;48703;51.248;-0.546;2022-11-23T14:10:40;98659;;;10.19;77.27
62632;BME280;48703;51.248;-0.546;2022-11-23T14:13:44;98659;;;10.20;77.25
62632;BME280;48703;51.248;-0.546;2022-11-23T14:16:52;98653;;;10.20;77.24
62632;BME280;48703;51.248;-0.546;2022-11-23T14:19:53;98652;;;10.17;76.33
62632;BME280;48703;51.248;-0.546;2022-11-23T14:22:52;98651;;;10.14;76.83
62632;BME280;48703;51.248;-0.546;2022-11-23T14:25:52;98660;;;10.09;75.57
62632;BME280;48703;51.248;-0.546;2022-11-23T14:28:56;98667;;;10.06;75.65
62632;BME280;48703;51.248;-0.546;2022-11-23T14:31:59;98676;;;10.03;76.08
62632;BME280;48703;51.248;-0.546;2022-11-23T14:34:59;98682;;;10.00;76.16
62632;BME280;48703;51.248;-0.546;2022-11-23T14:38:05;98686;;;10.02;76.65
62632;BME280;48703;51.248;-0.546;2022-11-23T14:41:00;98684;;;10.04;76.44
62632;BME280;48703;51.248;-0.546;2022-11-23T14:44:01;98685;;;10.07;75.52
62632;BME280;48703;51.248;-0.546;2022-11-23T14:47:06;98679;;;10.09;74.47
62632;BME280;48703;51.248;-0.546;2022-11-23T14:50:05;98681;;;10.10;74.05
62632;BME280;48703;51.248;-0.546;2022-11-23T14:53:08;98692;;;10.08;75.24
62632;BME280;48703;51.248;-0.546;2022-11-23T14:56:17;98697;;;10.03;75.39
62632;BME280;48703;51.248;-0.546;2022-11-23T14:59:14;98709;;;10.01;74.98
62632;BME280;48703;51.248;-0.546;2022-11-23T15:02:14;98718;;;9.99;74.77
62632;BME280;48703;51.248;-0.546;2022-11-23T15:05:15;98716;;;9.97;74.96
62632;BME280;48703;51.248;-0.546;2022-11-23T15:08:17;98721;;;9.95;75.06
62632;BME280;48703;51.248;-0.546;2022-11-23T15:11:18;98726;;;9.93;75.20
62632;BME280;48703;51.248;-0.546;2022-11-23T15:14:24;98724;;;9.92;75.97
62632;BME280;48703;51.248;-0.546;2022-11-23T15:17:22;98740;;;9.89;76.52
62632;BME280;48703;51.248;-0.546;2022-11-23T15:20:25;98737;;;9.86;76.47
62632;BME280;48703;51.248;-0.546;2022-11-23T15:23:27;98737;;;9.83;77.42
62632;BME280;48703;51.248;-0.546;2022-11-23T15:26:27;98739;;;9.79;77.29
62632;BME280;48703;51.248;-0.546;2022-11-23T15:29:30;98748;;;9.77;78.01
62632;BME280;48703;51.248;-0.546;2022-11-23T15:32:31;98754;;;9.73;78.29
62632;BME280;48703;51.248;-0.546;2022-11-23T15:35:33;98758;;;9.70;78.46
62632;BME280;48703;51.248;-0.546;2022-11-23T15:38:35;98771;;;9.65;78.73
62632;BME280;48703;51.248;-0.546;2022-11-23T15:41:37;98779;;;9.62;79.03
62632;BME280;48703;51.248;-0.546;2022-11-23T15:44:39;98785;;;9.59;79.07
62632;BME280;48703;51.248;-0.546;2022-11-23T15:47:40;98787;;;9.55;79.33
62632;BME280;48703;51.248;-0.546;2022-11-23T15:50:44;98791;;;9.52;79.58
62632;BME280;48703;51.248;-0.546;2022-11-23T15:53:46;98795;;;9.49;79.63
62632;BME280;48703;51.248;-0.546;2022-11-23T15:56:46;98802;;;9.46;79.57
62632;BME280;48703;51.248;-0.546;2022-11-23T15:59:49;98809;;;9.43;79.48
62632;BME280;48703;51.248;-0.546;2022-11-23T16:02:50;98815;;;9.40;79.91
62632;BME280;48703;51.248;-0.546;2022-11-23T16:06:07;98826;;;9.38;79.89
62632;BME280;48703;51.248;-0.546;2022-11-23T16:08:54;98830;;;9.35;80.23
62632;BME280;48703;51.248;-0.546;2022-11-23T16:11:55;98834;;;9.32;80.26
62632;BME280;48703;51.248;-0.546;2022-11-23T16:15:28;98839;;;9.30;80.49
62632;BME280;48703;51.248;-0.546;2022-11-23T16:17:59;98841;;;9.27;80.35
62632;BME280;48703;51.248;-0.546;2022-11-23T16:21:02;98845;;;9.25;80.59
62632;BME280;48703;51.248;-0.546;2022-11-23T16:24:03;98846;;;9.24;80.64
62632;BME280;48703;51.248;-0.546;2022-11-23T16:27:11;98846;;;9.21;80.87
62632;BME280;48703;51.248;-0.546;2022-11-23T16:30:20;98849;;;9.19;80.96
62632;BME280;48703;51.248;-0.546;2022-11-23T16:33:11;98850;;;9.18;81.07
62632;BME280;48703;51.248;-0.546;2022-11-23T16:36:11;98860;;;9.16;81.07
62632;BME280;48703;51.248;-0.546;2022-11-23T16:39:12;98870;;;9.14;81.23
62632;BME280;48703;51.248;-0.546;2022-11-23T16:42:15;98873;;;9.13;81.19
62632;BME280;48703;51.248;-0.546;2022-11-23T16:45:17;98873;;;9.13;81.16
62632;BME280;48703;51.248;-0.546;2022-11-23T16:48:34;98873;;;9.12;81.20